createdAt,value
2018-05-04T00:01:41.371Z,1.80
2018-05-04T00:04:09.764Z,1.70
2018-05-04T00:06:37.979Z,1.60
2018-05-04T00:09:07.134Z,1.80
2018-05-04T00:11:35.462Z,1.83
2018-05-04T00:14:03.970Z,1.77
2018-05-04T00:16:32.255Z,1.80
2018-05-04T00:19:00.719Z,1.87
2018-05-04T00:21:29.702Z,1.60
2018-05-04T00:23:58.703Z,1.63
2018-05-04T00:26:27.683Z,1.67
2018-05-04T00:28:56.691Z,1.90
2018-05-04T00:31:25.667Z,1.90
2018-05-04T00:33:54.070Z,1.50
2018-05-04T00:36:22.454Z,1.43
2018-05-04T00:38:50.755Z,1.70
2018-05-04T00:41:19.121Z,1.70
2018-05-04T00:43:47.507Z,1.70
2018-05-04T00:46:15.831Z,1.73
2018-05-04T00:48:44.343Z,1.70
2018-05-04T00:51:12.731Z,1.90
2018-05-04T00:53:52.631Z,1.70
2018-05-04T00:56:20.848Z,2.07
2018-05-04T00:58:49.115Z,1.90
2018-05-04T01:01:17.471Z,1.63
2018-05-04T01:03:45.711Z,1.70
2018-05-04T01:06:13.930Z,1.80
2018-05-04T01:08:42.350Z,1.90
2018-05-04T01:11:10.654Z,1.70
2018-05-04T01:13:38.891Z,1.60
2018-05-04T01:16:07.107Z,1.70
2018-05-04T01:18:35.523Z,1.60
2018-05-04T01:21:03.914Z,1.70
2018-05-04T01:23:32.391Z,1.70
2018-05-04T01:26:00.635Z,1.47
2018-05-04T01:28:28.851Z,1.50
2018-05-04T01:30:57.111Z,1.37
2018-05-04T01:33:25.330Z,1.47
2018-05-04T01:35:53.567Z,1.60
2018-05-04T01:38:21.957Z,1.60
2018-05-04T01:40:50.350Z,1.63
2018-05-04T01:43:18.571Z,1.57
2018-05-04T01:45:46.806Z,2.10
2018-05-04T01:48:15.019Z,1.50
2018-05-04T01:50:43.259Z,1.77
2018-05-04T01:53:11.571Z,1.40
2018-05-04T01:55:39.815Z,1.80
2018-05-04T01:58:08.035Z,1.70
2018-05-04T02:00:36.274Z,1.40
2018-05-04T02:03:04.506Z,1.47
2018-05-04T02:05:32.874Z,1.40
2018-05-04T02:08:01.231Z,1.40
2018-05-04T02:10:29.630Z,1.57
2018-05-04T02:12:57.842Z,1.67
2018-05-04T02:15:26.143Z,1.30
2018-05-04T02:17:54.571Z,1.40
2018-05-04T02:20:22.835Z,1.50
2018-05-04T02:22:51.050Z,1.50
2018-05-04T02:25:19.294Z,1.50
2018-05-04T02:27:47.643Z,1.50
2018-05-04T02:30:15.987Z,1.60
2018-05-04T02:32:44.202Z,1.30
2018-05-04T02:35:13.206Z,1.50
2018-05-04T02:37:42.190Z,1.47
2018-05-04T02:40:11.190Z,1.60
2018-05-04T02:42:40.174Z,1.40
2018-05-04T02:45:08.882Z,1.60
2018-05-04T02:47:37.128Z,1.33
2018-05-04T02:50:05.367Z,1.47
2018-05-04T02:52:33.598Z,1.50
2018-05-04T02:55:02.095Z,1.60
2018-05-04T02:57:30.307Z,1.40
2018-05-04T02:59:58.523Z,1.20
2018-05-04T03:02:27.534Z,1.43
2018-05-04T03:04:55.845Z,1.63
2018-05-04T03:07:24.210Z,1.40
2018-05-04T03:09:52.538Z,1.40
2018-05-04T03:12:20.779Z,1.30
2018-05-04T03:14:49.019Z,1.27
2018-05-04T03:17:18.083Z,1.30
2018-05-04T03:19:46.489Z,1.40
2018-05-04T03:22:14.867Z,1.33
2018-05-04T03:24:43.147Z,1.50
2018-05-04T03:27:11.622Z,1.60
2018-05-04T03:29:39.902Z,1.17
2018-05-04T03:32:08.226Z,1.23
2018-05-04T03:34:36.450Z,1.33
2018-05-04T03:37:04.831Z,1.60
2018-05-04T03:39:33.209Z,1.37
2018-05-04T03:42:01.551Z,1.63
2018-05-04T03:44:29.768Z,1.40
2018-05-04T03:46:58.006Z,1.40
2018-05-04T03:49:26.318Z,1.73
2018-05-04T03:51:54.719Z,1.30
2018-05-04T03:54:23.071Z,1.30
2018-05-04T03:56:51.483Z,1.40
2018-05-04T03:59:31.594Z,1.50
2018-05-04T04:02:12.379Z,1.20
2018-05-04T04:04:40.823Z,1.17
2018-05-04T04:07:09.038Z,1.60
2018-05-04T04:09:37.404Z,1.20
2018-05-04T04:12:05.723Z,1.57
2018-05-04T04:14:33.963Z,1.10
2018-05-04T04:17:02.179Z,1.00
2018-05-04T04:19:30.471Z,1.20
2018-05-04T04:21:58.858Z,1.60
2018-05-04T04:24:27.103Z,1.40
2018-05-04T04:26:55.438Z,1.50
2018-05-04T04:29:23.740Z,1.47
2018-05-04T04:31:51.956Z,1.33
2018-05-04T04:34:20.266Z,1.40
2018-05-04T04:36:48.512Z,1.40
2018-05-04T04:39:16.924Z,1.30
2018-05-04T04:41:45.134Z,1.40
2018-05-04T04:44:13.475Z,1.30
2018-05-04T04:46:41.727Z,1.30
2018-05-04T04:49:09.966Z,1.40
2018-05-04T04:51:38.181Z,1.40
2018-05-04T04:54:06.688Z,1.10
2018-05-04T04:56:35.030Z,1.47
2018-05-04T04:59:03.269Z,1.30
2018-05-04T05:01:31.488Z,1.20
2018-05-04T05:04:00.506Z,1.20
2018-05-04T05:06:28.756Z,1.30
2018-05-04T05:08:57.015Z,1.20
2018-05-04T05:11:25.331Z,1.27
2018-05-04T05:13:53.611Z,1.30
2018-05-04T05:16:22.011Z,1.20
2018-05-04T05:18:50.478Z,1.70
2018-05-04T05:21:18.734Z,1.53
2018-05-04T05:23:47.233Z,1.20
2018-05-04T05:26:15.494Z,1.47
2018-05-04T05:28:43.803Z,1.20
2018-05-04T05:31:12.054Z,1.20
2018-05-04T05:33:40.337Z,1.20
2018-05-04T05:36:08.698Z,1.37
2018-05-04T05:38:37.194Z,1.10
2018-05-04T05:41:05.486Z,1.13
2018-05-04T05:43:33.942Z,1.30
2018-05-04T05:46:02.318Z,1.20
2018-05-04T05:48:30.576Z,1.37
2018-05-04T05:50:59.303Z,2.30
2018-05-04T05:53:27.670Z,4.57
2018-05-04T05:55:55.910Z,4.83
2018-05-04T05:58:24.141Z,5.63
2018-05-04T06:00:52.382Z,4.80
2018-05-04T06:03:20.603Z,4.63
2018-05-04T06:05:48.949Z,4.87
2018-05-04T06:08:17.431Z,4.93
2018-05-04T06:10:45.647Z,4.47
2018-05-04T06:13:14.719Z,4.40
2018-05-04T06:15:42.947Z,5.20
2018-05-04T06:18:11.199Z,5.10
2018-05-04T06:20:39.523Z,5.07
2018-05-04T06:23:08.312Z,6.93
2018-05-04T06:25:36.544Z,6.07
2018-05-04T06:28:04.790Z,6.60
2018-05-04T06:30:33.038Z,5.87
2018-05-04T06:33:01.292Z,5.70
2018-05-04T06:35:29.591Z,6.53
2018-05-04T06:37:57.850Z,6.33
2018-05-04T06:40:26.342Z,8.10
2018-05-04T06:42:54.627Z,15.63
2018-05-04T06:45:23.060Z,17.80
2018-05-04T06:47:51.272Z,18.40
2018-05-04T06:50:19.502Z,18.13
2018-05-04T06:52:47.931Z,17.47
2018-05-04T06:55:16.145Z,17.43
2018-05-04T06:57:45.228Z,15.27
2018-05-04T07:00:13.679Z,15.23
2018-05-04T07:02:42.101Z,15.37
2018-05-04T07:05:10.344Z,15.10
2018-05-04T07:07:38.595Z,15.07
2018-05-04T07:10:06.886Z,13.47
2018-05-04T07:12:35.125Z,13.33
2018-05-04T07:15:03.372Z,13.80
2018-05-04T07:17:31.622Z,13.73
2018-05-04T07:20:00.090Z,13.00
2018-05-04T07:22:28.311Z,12.20
2018-05-04T07:24:56.846Z,12.40
2018-05-04T07:27:25.080Z,11.73
2018-05-04T07:29:53.326Z,10.47
2018-05-04T07:32:21.557Z,10.57
2018-05-04T07:34:49.803Z,13.77
2018-05-04T07:37:18.030Z,15.43
2018-05-04T07:39:46.507Z,14.73
2018-05-04T07:42:14.879Z,20.17
2018-05-04T07:44:43.182Z,22.57
2018-05-04T07:47:12.394Z,20.97
2018-05-04T07:49:40.637Z,23.20
2018-05-04T07:52:08.872Z,27.57
2018-05-04T07:57:24.264Z,33.00
2018-05-04T07:59:53.282Z,43.23
2018-05-04T08:02:21.514Z,44.23
2018-05-04T08:04:49.770Z,43.57
2018-05-04T08:07:18.874Z,43.27
2018-05-04T08:09:47.194Z,43.23
2018-05-04T08:12:15.603Z,42.20
2018-05-04T08:14:43.867Z,41.70
2018-05-04T08:17:12.093Z,41.60
2018-05-04T08:19:40.355Z,39.83
2018-05-04T08:22:08.587Z,36.33
2018-05-04T08:24:36.863Z,39.43
2018-05-04T08:27:05.098Z,45.87
2018-05-04T08:29:33.523Z,52.07
2018-05-04T08:32:01.875Z,46.93
2018-05-04T08:34:30.363Z,54.60
2018-05-04T08:36:59.539Z,51.80
2018-05-04T08:39:27.791Z,49.53
2018-05-04T08:41:56.026Z,51.47
2018-05-04T08:44:24.282Z,51.40
2018-05-04T08:46:52.547Z,50.93
2018-05-04T08:49:20.786Z,47.17
2018-05-04T08:51:49.017Z,48.50
2018-05-04T08:54:17.366Z,47.57
2018-05-04T08:56:45.694Z,53.77
2018-05-04T08:59:14.167Z,50.33
2018-05-04T09:01:42.467Z,49.93
2018-05-04T09:04:10.799Z,51.47
2018-05-04T09:06:39.294Z,50.93
2018-05-04T09:09:07.546Z,50.63
2018-05-04T09:11:35.807Z,49.73
2018-05-04T09:14:04.039Z,46.73
2018-05-04T09:16:32.387Z,42.87
2018-05-04T09:19:00.927Z,42.37
2018-05-04T09:24:32.661Z,39.60
2018-05-04T09:27:00.967Z,36.70
2018-05-04T09:29:29.294Z,35.07
2018-05-04T09:31:57.550Z,37.53
2018-05-04T09:34:25.867Z,39.00
2018-05-04T09:36:54.242Z,44.23
2018-05-04T09:39:22.697Z,39.60
2018-05-04T09:41:50.923Z,37.27
2018-05-04T09:44:19.242Z,37.07
2018-05-04T09:46:47.520Z,32.00
2018-05-04T09:49:15.755Z,33.20
2018-05-04T09:51:44.004Z,29.80
2018-05-04T09:54:12.233Z,28.13
2018-05-04T09:56:40.651Z,26.90
2018-05-04T09:59:08.899Z,26.93
2018-05-04T10:01:37.537Z,20.57
2018-05-04T10:04:05.755Z,16.00
2018-05-04T10:06:34.756Z,12.73
2018-05-04T10:09:03.793Z,19.03
2018-05-04T10:11:32.239Z,14.27
2018-05-04T10:14:00.550Z,17.27
2018-05-04T10:16:28.762Z,16.30
2018-05-04T10:18:57.102Z,17.83
2018-05-04T10:21:25.435Z,19.50
2018-05-04T10:23:53.831Z,35.63
2018-05-04T10:26:22.326Z,33.70
2018-05-04T10:28:50.967Z,40.30
2018-05-04T10:31:20.006Z,94.10
2018-05-04T10:36:23.619Z,69.80
2018-05-04T10:38:54.896Z,50.97
2018-05-04T10:41:23.202Z,45.00
2018-05-04T10:43:51.446Z,36.40
2018-05-04T10:46:26.810Z,39.50
2018-05-04T10:48:55.393Z,34.47
2018-05-04T10:51:23.887Z,37.27
2018-05-04T10:53:56.893Z,32.37
2018-05-04T10:56:26.103Z,34.57
2018-05-04T10:58:54.741Z,32.07
2018-05-04T11:01:22.951Z,40.33
2018-05-04T11:03:51.498Z,31.13
2018-05-04T11:06:19.876Z,29.13
2018-05-04T11:08:48.393Z,26.73
2018-05-04T11:11:16.798Z,26.03
2018-05-04T11:13:45.119Z,24.37
2018-05-04T11:16:14.118Z,20.23
2018-05-04T11:18:43.134Z,19.73
2018-05-04T11:21:11.374Z,20.07
2018-05-04T11:23:39.785Z,18.17
2018-05-04T11:26:08.015Z,16.03
2018-05-04T11:28:36.271Z,16.30
2018-05-04T11:31:04.503Z,16.27
2018-05-04T11:33:32.956Z,15.80
2018-05-04T11:36:01.166Z,13.23
2018-05-04T11:38:29.454Z,13.47
2018-05-04T11:40:57.923Z,12.57
2018-05-04T11:43:26.287Z,11.60
2018-05-04T11:45:55.607Z,10.77
2018-05-04T11:48:23.858Z,10.57
2018-05-04T11:50:52.449Z,9.97
2018-05-04T11:53:20.643Z,10.20
2018-05-04T11:55:49.731Z,13.80
2018-05-04T11:58:18.006Z,22.77
2018-05-04T12:00:46.503Z,23.53
2018-05-04T12:03:14.767Z,22.17
2018-05-04T12:05:43.026Z,18.43
2018-05-04T12:08:11.251Z,18.67
2018-05-04T12:10:39.587Z,18.80
2018-05-04T12:13:07.811Z,18.07
2018-05-04T12:15:36.062Z,17.40
2018-05-04T12:18:04.287Z,15.70
2018-05-04T12:20:32.538Z,15.10
2018-05-04T12:23:00.772Z,14.50
2018-05-04T12:25:29.036Z,12.63
2018-05-04T12:27:57.487Z,15.30
2018-05-04T12:30:25.718Z,21.03
2018-05-04T12:32:54.079Z,22.90
2018-05-04T12:35:22.485Z,19.73
2018-05-04T12:37:50.842Z,22.37
2018-05-04T12:40:19.067Z,22.00
2018-05-04T12:42:47.314Z,19.57
2018-05-04T12:45:15.750Z,17.80
2018-05-04T12:47:44.063Z,17.60
2018-05-04T12:50:12.291Z,14.97
2018-05-04T12:52:40.544Z,13.20
2018-05-04T12:55:08.767Z,11.33
2018-05-04T12:57:37.019Z,12.90
2018-05-04T13:00:06.117Z,12.37
2018-05-04T13:02:34.406Z,10.30
2018-05-04T13:05:02.779Z,7.47
2018-05-04T13:07:31.023Z,6.97
2018-05-04T13:09:59.406Z,6.70
2018-05-04T13:12:27.915Z,7.63
2018-05-04T13:14:56.175Z,14.00
2018-05-04T13:17:24.696Z,12.83
2018-05-04T13:19:52.927Z,18.00
2018-05-04T13:22:25.996Z,36.83
2018-05-04T13:24:54.326Z,33.03
2018-05-04T13:27:25.186Z,29.23
2018-05-04T13:29:56.359Z,26.67
2018-05-04T13:32:24.583Z,17.77
2018-05-04T13:34:52.811Z,20.13
2018-05-04T13:37:21.327Z,24.13
2018-05-04T13:39:49.555Z,20.40
2018-05-04T13:42:17.799Z,16.47
2018-05-04T13:44:46.031Z,17.07
2018-05-04T13:47:14.283Z,14.87
2018-05-04T13:49:42.511Z,14.80
2018-05-04T13:52:10.774Z,14.13
2018-05-04T13:54:38.994Z,10.83
2018-05-04T13:57:07.276Z,11.53
2018-05-04T13:59:35.802Z,10.80
2018-05-04T14:02:04.086Z,7.63
2018-05-04T14:04:32.725Z,9.03
2018-05-04T14:07:00.915Z,9.13
2018-05-04T14:09:29.926Z,8.53
2018-05-04T14:11:58.157Z,8.03
2018-05-04T14:14:26.570Z,7.10
2018-05-04T14:16:55.170Z,7.17
2018-05-04T14:19:24.223Z,6.30
2018-05-04T14:21:52.419Z,6.27
2018-05-04T14:24:21.422Z,7.50
2018-05-04T14:26:49.707Z,6.97
2018-05-04T14:29:18.110Z,6.57
2018-05-04T14:31:46.331Z,7.50
2018-05-04T14:34:14.571Z,6.57
2018-05-04T14:36:42.868Z,5.53
2018-05-04T14:39:11.107Z,8.23
2018-05-04T14:41:39.336Z,8.00
2018-05-04T14:44:07.582Z,11.10
2018-05-04T14:46:35.811Z,12.53
2018-05-04T14:49:04.062Z,12.47
2018-05-04T14:51:32.361Z,10.23
2018-05-04T14:54:00.535Z,10.40
2018-05-04T14:56:28.763Z,8.63
2018-05-04T14:58:57.007Z,12.43
2018-05-04T15:01:25.264Z,11.33
2018-05-04T15:03:53.493Z,9.70
2018-05-04T15:06:21.914Z,6.43
2018-05-04T15:08:50.127Z,11.83
2018-05-04T15:11:18.367Z,11.93
2018-05-04T15:13:46.599Z,13.97
2018-05-04T15:16:14.845Z,15.10
2018-05-04T15:18:43.078Z,11.93
2018-05-04T15:21:11.363Z,12.50
2018-05-04T15:23:39.817Z,9.63
2018-05-04T15:26:08.039Z,10.80
2018-05-04T15:28:36.351Z,11.90
2018-05-04T15:31:05.551Z,13.03
2018-05-04T15:33:33.779Z,10.53
2018-05-04T15:36:02.148Z,12.03
2018-05-04T15:38:30.363Z,9.30
2018-05-04T15:40:58.695Z,8.90
2018-05-04T15:43:26.946Z,7.53
2018-05-04T15:45:55.237Z,7.40
2018-05-04T15:48:28.991Z,6.97
2018-05-04T15:51:03.122Z,4.00
2018-05-04T15:53:31.339Z,3.50
2018-05-04T15:55:59.600Z,3.57
2018-05-04T15:58:27.823Z,3.13
2018-05-04T16:00:56.058Z,3.20
2018-05-04T16:03:24.410Z,3.13
2018-05-04T16:05:52.803Z,3.17
2018-05-04T16:08:21.023Z,3.30
2018-05-04T16:10:49.259Z,3.43
2018-05-04T16:13:17.475Z,4.63
2018-05-04T16:15:45.715Z,2.97
2018-05-04T16:18:13.955Z,3.10
2018-05-04T16:20:43.087Z,3.33
2018-05-04T16:23:11.330Z,2.87
2018-05-04T16:25:39.548Z,3.27
2018-05-04T16:28:07.788Z,3.00
2018-05-04T16:30:36.006Z,2.67
2018-05-04T16:33:04.320Z,3.27
2018-05-04T16:35:32.502Z,2.80
2018-05-04T17:59:58.591Z,1.83
2018-05-04T18:02:26.930Z,1.70
2018-05-04T18:04:55.271Z,1.70
2018-05-04T18:07:23.587Z,2.17
2018-05-04T18:09:51.826Z,1.60
2018-05-04T18:12:20.075Z,1.70
2018-05-04T18:14:48.315Z,2.07
2018-05-04T18:17:16.548Z,2.00
2018-05-04T18:19:44.927Z,1.70
2018-05-04T18:22:13.141Z,1.83
2018-05-04T18:24:41.382Z,1.60
2018-05-04T18:27:09.736Z,1.83
2018-05-04T18:29:37.975Z,2.07
2018-05-04T18:32:06.191Z,1.90
2018-05-04T18:34:34.663Z,1.80
2018-05-04T18:37:02.942Z,2.00
2018-05-04T18:39:31.182Z,2.30
2018-05-04T18:41:59.491Z,1.63
2018-05-04T18:44:27.874Z,1.90
2018-05-04T18:46:56.111Z,1.70
2018-05-04T18:49:24.634Z,1.87
2018-05-04T18:51:52.955Z,2.00
2018-05-04T18:54:21.225Z,1.50
2018-05-04T18:56:49.455Z,1.70
2018-05-04T18:59:17.766Z,1.80
2018-05-04T19:01:46.219Z,2.10
2018-05-04T19:04:14.526Z,1.80
2018-05-04T19:06:42.772Z,1.90
2018-05-04T19:09:11.038Z,2.00
2018-05-04T19:11:39.418Z,1.70
2018-05-04T19:14:07.776Z,1.80
2018-05-04T19:16:36.781Z,1.90
2018-05-04T19:19:05.783Z,1.77
2018-05-04T19:21:34.050Z,1.67
2018-05-04T19:24:03.776Z,1.70
2018-05-04T19:26:32.015Z,1.60
2018-05-04T19:29:00.231Z,2.00
2018-05-04T19:31:28.595Z,1.70
2018-05-04T19:33:56.878Z,1.70
2018-05-04T19:36:25.240Z,1.80
2018-05-04T19:38:53.464Z,1.97
2018-05-04T19:41:21.707Z,1.70
2018-05-04T19:43:50.056Z,1.70
2018-05-04T19:46:18.559Z,1.93
2018-05-04T19:48:46.775Z,1.73
2018-05-04T19:51:14.992Z,2.00
2018-05-04T19:53:43.998Z,1.80
2018-05-04T19:56:12.287Z,1.60
2018-05-04T19:58:40.731Z,1.60
2018-05-04T20:01:09.118Z,1.70
2018-05-04T20:03:38.123Z,1.60
2018-05-04T20:06:07.108Z,1.70
2018-05-04T20:08:36.118Z,2.10
2018-05-04T20:11:04.431Z,1.90
2018-05-04T20:13:32.671Z,1.80
2018-05-04T20:16:00.887Z,1.83
2018-05-04T20:18:29.210Z,1.50
2018-05-04T20:20:57.565Z,1.63
2018-05-04T20:23:25.811Z,1.60
2018-05-04T20:25:54.023Z,1.90
2018-05-04T20:28:22.269Z,1.50
2018-05-04T20:30:50.604Z,1.73
2018-05-04T20:33:18.846Z,1.87
2018-05-04T20:35:47.222Z,1.70
2018-05-04T20:38:15.458Z,1.80
2018-05-04T20:40:43.711Z,1.77
2018-05-04T20:43:12.105Z,1.63
2018-05-04T20:45:40.450Z,1.70
2018-05-04T20:48:08.831Z,1.70
2018-05-04T20:50:37.047Z,1.80
2018-05-04T20:53:05.314Z,1.77
2018-05-04T20:55:33.534Z,1.70
2018-05-04T20:58:01.801Z,1.83
2018-05-04T21:00:30.127Z,1.70
2018-05-04T21:02:58.611Z,1.77
2018-05-04T21:05:26.959Z,1.80
2018-05-04T21:07:55.947Z,1.53
2018-05-04T21:10:24.240Z,1.43
2018-05-04T21:12:52.591Z,1.80
2018-05-04T21:15:21.000Z,1.70
2018-05-04T21:17:49.482Z,1.50
2018-05-04T21:20:17.863Z,1.80
2018-05-04T21:22:46.106Z,1.80
2018-05-04T21:25:14.346Z,1.90
2018-05-04T21:27:42.594Z,1.80
2018-05-04T21:30:10.839Z,1.70
2018-05-04T21:32:39.050Z,1.40
2018-05-04T21:35:07.292Z,1.50
2018-05-04T21:37:35.511Z,1.53
2018-05-04T21:40:03.755Z,1.23
2018-05-04T21:42:31.970Z,1.50
2018-05-04T21:45:00.342Z,1.80
2018-05-04T21:47:28.804Z,1.50
2018-05-04T21:49:57.063Z,1.70
2018-05-04T21:52:25.454Z,1.60
2018-05-04T21:54:53.931Z,1.67
2018-05-04T21:57:22.180Z,1.70
2018-05-04T21:59:50.575Z,1.63
2018-05-04T22:02:18.975Z,1.60
2018-05-04T22:04:47.391Z,1.60
2018-05-04T22:07:15.587Z,1.60
2018-05-04T22:09:43.822Z,1.77
2018-05-04T22:12:12.039Z,1.57
2018-05-04T22:14:40.275Z,1.50
2018-05-04T22:17:08.567Z,1.40
2018-05-04T22:19:36.966Z,1.60
2018-05-04T22:22:05.202Z,1.60
2018-05-04T22:24:33.539Z,1.73
2018-05-04T22:27:02.850Z,1.57
2018-05-04T22:29:31.098Z,1.30
2018-05-04T22:31:59.340Z,1.83
2018-05-04T22:34:27.559Z,1.47
2018-05-04T22:36:55.875Z,1.50
2018-05-04T22:39:24.096Z,1.43
2018-05-04T22:41:52.430Z,1.60
2018-05-04T22:44:20.647Z,1.50
2018-05-04T22:46:48.954Z,1.80
2018-05-04T22:49:17.206Z,1.50
2018-05-04T22:51:45.454Z,1.47
2018-05-04T22:54:13.791Z,1.47
2018-05-04T22:56:42.091Z,1.60
2018-05-04T22:59:10.411Z,1.60
2018-05-04T23:01:38.754Z,1.50
2018-05-04T23:04:06.975Z,1.60
2018-05-04T23:06:35.978Z,1.50
2018-05-04T23:09:04.981Z,1.40
2018-05-04T23:11:33.975Z,1.53
2018-05-04T23:14:02.199Z,1.37
2018-05-04T23:16:30.618Z,1.30
2018-05-04T23:18:59.006Z,2.00
2018-05-04T23:21:27.386Z,1.47
2018-05-04T23:23:55.631Z,1.77
2018-05-04T23:26:23.847Z,1.47
2018-05-04T23:28:52.238Z,1.30
2018-05-04T23:31:20.596Z,1.60
2018-05-04T23:33:49.070Z,1.40
2018-05-04T23:36:17.287Z,1.50
2018-05-04T23:38:45.527Z,1.20
2018-05-04T23:41:13.898Z,1.40
2018-05-04T23:43:42.275Z,1.30
2018-05-04T23:46:10.591Z,1.47
2018-05-04T23:48:38.924Z,1.43
2018-05-04T23:51:07.146Z,1.50
2018-05-04T23:53:35.383Z,1.60
2018-05-04T23:56:03.598Z,1.40
2018-05-04T23:58:31.843Z,1.60
